Time;durP1;ratioP1;P1;durP2;ratioP2;P2;SDS_P1;SDS_P2;PMS_P1;PMS_P2;Temp;Humidity;BMP_temperature;BMP_pressure;BME280_temperature;BME280_humidity;BME280_pressure;Samples;Min_cycle;Max_cycle;Signal;HPM_P1;HPM_P2
2024/01/07 00:02:00;;;;;;;;;;;;;;;;;;5199897;28;19973;-57
2024/01/07 00:04:31;;;;;;;;;;;;;;;;;;5204204;28;19925;-58
2024/01/07 00:07:02;;;;;;;;;;;;;;;;;;5184262;28;19922;-56
2024/01/07 00:09:33;;;;;;;;;;;;;;;;;;5199910;28;20292;-59
2024/01/07 00:12:04;;;;;;;;;;;;;;;;;;5186468;28;19936;-57
2024/01/07 00:14:35;;;;;;;;;;;;;;;;;;5186917;28;20420;-56
2024/01/07 00:17:06;;;;;;;;;;;;;;;;;;5179662;28;19967;-57
2024/01/07 00:19:38;;;;;;;;;;;;;;;;;;5186524;28;19921;-57
2024/01/07 00:22:09;;;;;;;;;;;;;;;;;;5165976;28;20313;-57
2024/01/07 00:24:40;;;;;;;;;;;;;;;;;;5180133;28;19925;-56
2024/01/07 00:27:11;;;;;;;;;;;;;;;;;;5169283;28;19975;-57
2024/01/07 00:29:42;;;;;;;;;;;;;;;;;;5178861;28;19921;-56
2024/01/07 00:32:13;;;;;;;;;;;;;;;;;;5185127;28;20295;-56
2024/01/07 00:34:44;;;;;;;;;;;;;;;;;;5200586;28;19938;-57
2024/01/07 00:37:15;;;;;;;;;;;;;;;;;;5195405;28;20338;-56
2024/01/07 00:39:46;;;;;;;;;;;;;;;;;;5181714;28;20004;-57
2024/01/07 00:42:17;;;;;;;;;;;;;;;;;;5192408;28;19927;-57
2024/01/07 00:44:48;;;;;;;;;;;;;;;;;;5195631;28;20340;-56
2024/01/07 00:47:19;;;;;;;;;;;;;;;;;;5182294;28;19921;-56
2024/01/07 00:49:50;;;;;;;;;;;;;;;;;;5199628;28;19929;-56
2024/01/07 00:52:23;;;;;;;;;;;;;;;;;;5202552;28;19973;-58
2024/01/07 00:54:54;;;;;;;;;;;;;;;;;;5202887;28;20360;-56
2024/01/07 00:57:25;;;;;;;;;;;;;;;;;;5168620;28;19921;-58
2024/01/07 00:59:56;;;;;;;;;;;;;;;;;;5183571;28;20288;-56
2024/01/07 01:02:27;;;;;;;;;;;;;;;;;;5202003;28;19925;-56
2024/01/07 01:04:58;;;;;;;;;;;;;;;;;;5185788;28;19932;-56
2024/01/07 01:07:29;;;;;;;;;;;;;;;;;;5181701;28;19921;-56
2024/01/07 01:10:00;;;;;;;;;;;;;;;;;;5186092;28;19921;-57
2024/01/07 01:12:31;;;;;;;;;;;;;;;;;;5185968;28;19921;-56
2024/01/07 01:15:02;;;;;;;;;;;;;;;;;;5186070;28;19979;-57
2024/01/07 01:17:33;;;;;;;;;;;;;;;;;;5185912;28;19925;-56
2024/01/07 01:20:04;;;;;;;;;;;;;;;;;;5183203;28;20016;-56
2024/01/07 01:22:35;;;;;;;;;;;;;;;;;;5186297;28;19921;-57
2024/01/07 01:25:06;;;;;;;;;;;;;;;;;;5178125;28;19944;-57
2024/01/07 01:27:37;;;;;;;;;;;;;;;;;;5176164;28;19921;-57
2024/01/07 01:30:08;;;;;;;;;;;;;;;;;;5185977;28;20379;-57
2024/01/07 01:32:39;;;;;;;;;;;;;;;;;;5203963;28;20014;-57
2024/01/07 01:35:09;;;;;;;;;;;;;;;;;;5185743;28;19971;-58
2024/01/07 01:37:40;;;;;;;;;;;;;;;;;;5189745;28;19972;-56
2024/01/07 01:40:11;;;;;;;;;;;;;;;;;;5185838;28;19925;-56
2024/01/07 01:42:43;;;;;;;;;;;;;;;;;;5183049;28;20314;-57
2024/01/07 01:45:13;;;;;;;;;;;;;;;;;;5185839;28;20347;-56
2024/01/07 01:47:45;;;;;;;;;;;;;;;;;;5202012;28;19968;-57
2024/01/07 01:50:17;;;;;;;;;;;;;;;;;;5193349;28;19925;-56
2024/01/07 01:52:48;;;;;;;;;;;;;;;;;;5185139;28;19931;-56
2024/01/07 01:55:19;;;;;;;;;;;;;;;;;;5183913;28;19921;-56
2024/01/07 01:57:50;;;;;;;;;;;;;;;;;;5192740;28;19972;-56
2024/01/07 02:00:21;;;;;;;;;;;;;;;;;;5203392;28;19921;-55
2024/01/07 02:02:52;;;;;;;;;;;;;;;;;;5185644;28;19944;-57
2024/01/07 02:05:23;;;;;;;;;;;;;;;;;;5168758;28;19926;-57
2024/01/07 02:07:56;;;;;;;;;;;;;;;;;;5188858;28;19925;-55
2024/01/07 02:10:28;;;;;;;;;;;;;;;;;;5189084;28;19944;-56
2024/01/07 02:12:59;;;;;;;;;;;;;;;;;;5190015;28;20292;-56
2024/01/07 02:15:30;;;;;;;;;;;;;;;;;;5189156;28;19953;-56
2024/01/07 02:18:01;;;;;;;;;;;;;;;;;;5192923;28;20284;-56
2024/01/07 02:20:32;;;;;;;;;;;;;;;;;;5187542;28;19947;-57
2024/01/07 02:23:04;;;;;;;;;;;;;;;;;;5189324;28;19925;-56
2024/01/07 02:25:35;;;;;;;;;;;;;;;;;;5181979;28;19925;-56
2024/01/07 02:28:06;;;;;;;;;;;;;;;;;;5207123;28;19944;-56
2024/01/07 02:30:37;;;;;;;;;;;;;;;;;;5184862;28;19922;-56
2024/01/07 02:33:08;;;;;;;;;;;;;;;;;;5173050;28;20012;-57
2024/01/07 02:35:39;;;;;;;;;;;;;;;;;;5188992;28;19925;-56
2024/01/07 02:38:10;;;;;;;;;;;;;;;;;;5189045;28;19921;-56
2024/01/07 02:40:41;;;;;;;;;;;;;;;;;;5188016;28;20407;-56
2024/01/07 02:43:12;;;;;;;;;;;;;;;;;;5201429;28;19925;-56
2024/01/07 02:45:43;;;;;;;;;;;;;;;;;;5201646;28;19931;-56
2024/01/07 02:48:14;;;;;;;;;;;;;;;;;;5186808;28;19932;-56
2024/01/07 02:50:45;;;;;;;;;;;;;;;;;;5201439;28;19937;-56
2024/01/07 02:53:16;;;;;;;;;;;;;;;;;;5188488;28;20439;-56
2024/01/07 02:55:47;;;;;;;;;;;;;;;;;;5176955;28;19928;-56
2024/01/07 02:58:18;;;;;;;;;;;;;;;;;;5176316;28;20328;-56
2024/01/07 03:00:49;;;;;;;;;;;;;;;;;;5188717;28;19968;-56
2024/01/07 03:03:20;;;;;;;;;;;;;;;;;;5204811;28;19920;-56
2024/01/07 03:05:51;;;;;;;;;;;;;;;;;;5184623;28;19929;-56
2024/01/07 03:08:22;;;;;;;;;;;;;;;;;;5187225;28;19979;-56
2024/01/07 03:10:53;;;;;;;;;;;;;;;;;;5204324;28;19975;-56
2024/01/07 03:13:24;;;;;;;;;;;;;;;;;;5204558;28;20332;-57
2024/01/07 03:15:55;;;;;;;;;;;;;;;;;;5204811;28;19925;-57
2024/01/07 03:18:26;;;;;;;;;;;;;;;;;;5187653;28;19921;-57
2024/01/07 03:20:57;;;;;;;;;;;;;;;;;;5200798;28;19921;-57
2024/01/07 03:23:28;;;;;;;;;;;;;;;;;;5167711;28;19944;-57
2024/01/07 03:25:59;;;;;;;;;;;;;;;;;;5204382;28;19987;-57
2024/01/07 03:28:30;;;;;;;;;;;;;;;;;;5202842;28;20388;-57
2024/01/07 03:31:01;;;;;;;;;;;;;;;;;;5194984;28;19921;-57
2024/01/07 03:33:32;;;;;;;;;;;;;;;;;;5183797;28;19929;-57
2024/01/07 03:36:03;;;;;;;;;;;;;;;;;;5204614;28;20300;-57
2024/01/07 03:38:34;;;;;;;;;;;;;;;;;;5187992;28;19927;-57
2024/01/07 03:41:05;;;;;;;;;;;;;;;;;;5203094;28;20383;-56
2024/01/07 03:43:36;;;;;;;;;;;;;;;;;;5187731;28;19921;-57
2024/01/07 03:46:07;;;;;;;;;;;;;;;;;;5187058;28;20008;-55
2024/01/07 03:48:38;;;;;;;;;;;;;;;;;;5168320;28;20015;-58
2024/01/07 03:51:09;;;;;;;;;;;;;;;;;;5201979;28;19928;-56
2024/01/07 03:53:40;;;;;;;;;;;;;;;;;;5203961;28;19921;-56
2024/01/07 03:56:11;;;;;;;;;;;;;;;;;;5185508;28;19987;-57
2024/01/07 03:58:42;;;;;;;;;;;;;;;;;;5205210;28;19921;-56
2024/01/07 04:01:13;;;;;;;;;;;;;;;;;;5187410;28;20020;-57
2024/01/07 04:03:44;;;;;;;;;;;;;;;;;;5183163;28;19925;-57
2024/01/07 04:06:15;;;;;;;;;;;;;;;;;;5182694;28;20391;-57
2024/01/07 04:08:46;;;;;;;;;;;;;;;;;;5204888;28;19921;-57
2024/01/07 04:11:18;;;;;;;;;;;;;;;;;;5186644;28;20287;-57
2024/01/07 04:13:49;;;;;;;;;;;;;;;;;;5190343;28;19921;-56
2024/01/07 04:16:20;;;;;;;;;;;;;;;;;;5186815;28;20398;-56
2024/01/07 04:18:51;;;;;;;;;;;;;;;;;;5183884;28;19979;-56
2024/01/07 04:21:22;;;;;;;;;;;;;;;;;;5193636;28;20000;-56
2024/01/07 04:23:53;;;;;;;;;;;;;;;;;;5186617;28;19996;-57
2024/01/07 04:26:24;;;;;;;;;;;;;;;;;;5186685;28;19998;-57
2024/01/07 04:28:55;;;;;;;;;;;;;;;;;;5201859;28;20265;-56
2024/01/07 04:31:26;;;;;;;;;;;;;;;;;;5182518;28;19928;-56
2024/01/07 04:33:57;;;;;;;;;;;;;;;;;;5186709;28;20810;-56
2024/01/07 04:36:28;;;;;;;;;;;;;;;;;;5200474;28;19926;-56
2024/01/07 04:38:59;;;;;;;;;;;;;;;;;;5203172;28;19975;-55
2024/01/07 04:41:30;;;;;;;;;;;;;;;;;;5198422;28;20395;-56
2024/01/07 04:44:01;;;;;;;;;;;;;;;;;;5203289;28;19995;-56
2024/01/07 04:46:32;;;;;;;;;;;;;;;;;;5182576;28;19921;-56
2024/01/07 04:49:03;;;;;;;;;;;;;;;;;;5203016;28;19921;-56
2024/01/07 04:51:36;;;;;;;;;;;;;;;;;;5182155;28;19921;-56
2024/01/07 04:54:07;;;;;;;;;;;;;;;;;;5202837;28;20405;-57
2024/01/07 04:56:38;;;;;;;;;;;;;;;;;;5166828;28;20030;-58
2024/01/07 04:59:09;;;;;;;;;;;;;;;;;;5173494;28;20431;-58
2024/01/07 05:01:40;;;;;;;;;;;;;;;;;;5186109;28;19921;-55
2024/01/07 05:04:11;;;;;;;;;;;;;;;;;;5203823;28;19937;-59
2024/01/07 05:06:42;;;;;;;;;;;;;;;;;;5165535;28;19992;-55
2024/01/07 05:09:13;;;;;;;;;;;;;;;;;;5202169;28;19967;-56
2024/01/07 05:11:44;;;;;;;;;;;;;;;;;;5186437;28;19964;-56
2024/01/07 05:14:15;;;;;;;;;;;;;;;;;;5201979;28;20447;-56
2024/01/07 05:16:46;;;;;;;;;;;;;;;;;;5202689;28;20096;-56
2024/01/07 05:19:17;;;;;;;;;;;;;;;;;;5186231;28;20388;-56
2024/01/07 05:21:48;;;;;;;;;;;;;;;;;;5189881;28;19925;-56
2024/01/07 05:24:19;;;;;;;;;;;;;;;;;;5202343;28;19936;-56
2024/01/07 05:26:50;;;;;;;;;;;;;;;;;;5202681;28;19925;-56
2024/01/07 05:29:22;;;;;;;;;;;;;;;;;;5182569;28;19921;-56
2024/01/07 05:31:53;;;;;;;;;;;;;;;;;;5165617;28;19921;-56
2024/01/07 05:34:24;;;;;;;;;;;;;;;;;;5187038;28;19926;-56
2024/01/07 05:36:55;;;;;;;;;;;;;;;;;;5182298;28;19917;-55
2024/01/07 05:39:26;;;;;;;;;;;;;;;;;;5198353;28;19929;-55
2024/01/07 05:41:57;;;;;;;;;;;;;;;;;;5189533;28;19921;-54
2024/01/07 05:44:28;;;;;;;;;;;;;;;;;;5180030;28;19929;-56
2024/01/07 05:46:59;;;;;;;;;;;;;;;;;;5189581;28;20037;-56
2024/01/07 05:49:30;;;;;;;;;;;;;;;;;;5186994;28;20430;-55
2024/01/07 05:52:01;;;;;;;;;;;;;;;;;;5203305;28;20414;-55
2024/01/07 05:54:32;;;;;;;;;;;;;;;;;;5189711;28;19965;-56
2024/01/07 05:57:03;;;;;;;;;;;;;;;;;;5200587;28;19933;-55
2024/01/07 05:59:34;;;;;;;;;;;;;;;;;;5186052;28;19929;-56
2024/01/07 06:02:05;;;;;;;;;;;;;;;;;;5189528;28;19980;-56
2024/01/07 06:04:36;;;;;;;;;;;;;;;;;;5189390;28;20027;-56
2024/01/07 06:07:07;;;;;;;;;;;;;;;;;;5189900;28;19928;-56
2024/01/07 06:09:39;;;;;;;;;;;;;;;;;;5177929;28;19928;-56
2024/01/07 06:12:10;;;;;;;;;;;;;;;;;;5176721;28;19925;-56
2024/01/07 06:14:41;;;;;;;;;;;;;;;;;;5176982;28;19921;-56
2024/01/07 06:17:12;;;;;;;;;;;;;;;;;;5189347;28;19921;-56
2024/01/07 06:19:43;;;;;;;;;;;;;;;;;;5202122;28;20406;-56
2024/01/07 06:22:14;;;;;;;;;;;;;;;;;;5158507;28;20046;-56
2024/01/07 06:24:45;;;;;;;;;;;;;;;;;;5201387;28;20410;-56
2024/01/07 06:27:16;;;;;;;;;;;;;;;;;;5168922;28;19926;-57
2024/01/07 06:29:47;;;;;;;;;;;;;;;;;;5180833;28;19928;-56
2024/01/07 06:32:18;;;;;;;;;;;;;;;;;;5168627;28;20004;-55
2024/01/07 06:34:49;;;;;;;;;;;;;;;;;;5187338;28;19933;-55
2024/01/07 06:37:20;;;;;;;;;;;;;;;;;;5188930;28;19932;-57
2024/01/07 06:39:51;;;;;;;;;;;;;;;;;;5197688;28;19929;-57
2024/01/07 06:42:22;;;;;;;;;;;;;;;;;;5205334;28;19932;-57
2024/01/07 06:44:53;;;;;;;;;;;;;;;;;;5203743;28;20495;-57
2024/01/07 06:47:24;;;;;;;;;;;;;;;;;;5205507;28;19925;-56
2024/01/07 06:49:55;;;;;;;;;;;;;;;;;;5204364;28;19936;-56
2024/01/07 06:52:26;;;;;;;;;;;;;;;;;;5205127;28;20388;-55
2024/01/07 06:54:57;;;;;;;;;;;;;;;;;;5186147;28;19921;-56
2024/01/07 06:57:28;;;;;;;;;;;;;;;;;;5200526;28;19930;-57
2024/01/07 06:59:59;;;;;;;;;;;;;;;;;;5205337;28;19996;-57
2024/01/07 07:02:30;;;;;;;;;;;;;;;;;;5188152;28;20357;-58
2024/01/07 07:05:01;;;;;;;;;;;;;;;;;;5180741;28;19933;-57
2024/01/07 07:07:32;;;;;;;;;;;;;;;;;;5180794;28;19940;-55
2024/01/07 07:10:03;;;;;;;;;;;;;;;;;;5177962;28;19926;-55
2024/01/07 07:12:34;;;;;;;;;;;;;;;;;;5180117;28;19970;-56
2024/01/07 07:15:05;;;;;;;;;;;;;;;;;;5188856;28;19921;-56
2024/01/07 07:17:36;;;;;;;;;;;;;;;;;;5203950;28;19986;-56
2024/01/07 07:20:07;;;;;;;;;;;;;;;;;;5196636;28;19921;-55
2024/01/07 07:22:39;;;;;;;;;;;;;;;;;;5183793;28;20060;-56
2024/01/07 07:25:10;;;;;;;;;;;;;;;;;;5198729;28;19937;-57
2024/01/07 07:27:41;;;;;;;;;;;;;;;;;;5205264;28;19984;-56
2024/01/07 07:30:12;;;;;;;;;;;;;;;;;;5180757;28;19922;-56
2024/01/07 07:32:44;;;;;;;;;;;;;;;;;;5204796;28;19984;-56
2024/01/07 07:35:15;;;;;;;;;;;;;;;;;;5201935;28;19921;-56
2024/01/07 07:37:46;;;;;;;;;;;;;;;;;;5176998;28;19928;-56
2024/01/07 07:40:17;;;;;;;;;;;;;;;;;;5187711;28;19921;-55
2024/01/07 07:42:48;;;;;;;;;;;;;;;;;;5183791;28;19947;-55
2024/01/07 07:45:19;;;;;;;;;;;;;;;;;;5169390;28;19963;-55
2024/01/07 07:47:50;;;;;;;;;;;;;;;;;;5191616;28;19926;-55
2024/01/07 07:50:21;;;;;;;;;;;;;;;;;;5174694;28;19925;-56
2024/01/07 07:52:53;;;;;;;;;;;;;;;;;;5199031;28;19928;-56
2024/01/07 07:55:24;;;;;;;;;;;;;;;;;;5187749;28;20327;-56
2024/01/07 07:57:55;;;;;;;;;;;;;;;;;;5182993;28;20018;-55
2024/01/07 08:00:26;;;;;;;;;;;;;;;;;;5187931;28;20307;-56
2024/01/07 08:02:57;;;;;;;;;;;;;;;;;;5176692;28;20012;-56
2024/01/07 08:05:28;;;;;;;;;;;;;;;;;;5203138;28;20024;-56
2024/01/07 08:07:59;;;;;;;;;;;;;;;;;;5186370;28;19991;-55
2024/01/07 08:10:32;;;;;;;;;;;;;;;;;;5179757;28;19948;-56
2024/01/07 08:13:03;;;;;;;;;;;;;;;;;;5202672;28;20009;-56
2024/01/07 08:15:34;;;;;;;;;;;;;;;;;;5202479;28;20420;-56
2024/01/07 08:18:05;;;;;;;;;;;;;;;;;;5162096;28;19941;-56
2024/01/07 08:20:36;;;;;;;;;;;;;;;;;;5198747;28;19921;-56
2024/01/07 08:23:07;;;;;;;;;;;;;;;;;;5199445;28;19925;-56
2024/01/07 08:25:38;;;;;;;;;;;;;;;;;;5183463;28;20023;-56
2024/01/07 08:28:09;;;;;;;;;;;;;;;;;;5203758;28;20311;-58
2024/01/07 08:30:40;;;;;;;;;;;;;;;;;;5181849;28;20319;-57
2024/01/07 08:33:11;;;;;;;;;;;;;;;;;;5194599;28;19974;-56
2024/01/07 08:35:43;;;;;;;;;;;;;;;;;;5186081;28;20019;-56
2024/01/07 08:38:14;;;;;;;;;;;;;;;;;;5202441;28;19925;-56
2024/01/07 08:40:45;;;;;;;;;;;;;;;;;;5182062;28;19940;-56
2024/01/07 08:43:16;;;;;;;;;;;;;;;;;;5182913;28;19925;-56
2024/01/07 08:45:47;;;;;;;;;;;;;;;;;;5183769;28;19925;-57
2024/01/07 08:48:18;;;;;;;;;;;;;;;;;;5202572;28;19925;-56
2024/01/07 08:50:50;;;;;;;;;;;;;;;;;;5178144;28;19925;-57
2024/01/07 08:53:22;;;;;;;;;;;;;;;;;;5181915;28;19922;-57
2024/01/07 08:55:53;;;;;;;;;;;;;;;;;;5175402;28;19951;-56
2024/01/07 08:58:24;;;;;;;;;;;;;;;;;;5164773;28;19921;-57
2024/01/07 09:00:55;;;;;;;;;;;;;;;;;;5174946;28;19921;-56
2024/01/07 09:03:26;;;;;;;;;;;;;;;;;;5200135;28;19921;-57
2024/01/07 09:05:57;;;;;;;;;;;;;;;;;;5184874;28;19956;-57
2024/01/07 09:08:28;;;;;;;;;;;;;;;;;;5181838;28;19965;-56
2024/01/07 09:11:00;;;;;;;;;;;;;;;;;;5175859;28;19929;-56
2024/01/07 09:13:31;;;;;;;;;;;;;;;;;;5185442;28;19985;-56
2024/01/07 09:16:02;;;;;;;;;;;;;;;;;;5201327;28;19925;-56
2024/01/07 09:18:33;;;;;;;;;;;;;;;;;;5186207;28;19925;-56
2024/01/07 09:21:04;;;;;;;;;;;;;;;;;;5182453;28;19972;-57
2024/01/07 09:23:36;;;;;;;;;;;;;;;;;;5177321;28;19921;-57
2024/01/07 09:26:07;;;;;;;;;;;;;;;;;;5186018;28;19968;-57
2024/01/07 09:28:38;;;;;;;;;;;;;;;;;;5202034;28;20042;-57
2024/01/07 09:31:09;;;;;;;;;;;;;;;;;;5203057;28;20330;-56
2024/01/07 09:33:40;;;;;;;;;;;;;;;;;;5200058;28;19945;-57
2024/01/07 09:36:11;;;;;;;;;;;;;;;;;;5183922;28;20280;-56
2024/01/07 09:38:42;;;;;;;;;;;;;;;;;;5199997;28;19996;-57
2024/01/07 09:41:13;;;;;;;;;;;;;;;;;;5195933;28;20116;-56
2024/01/07 09:43:44;;;;;;;;;;;;;;;;;;5185468;28;19929;-57
2024/01/07 09:46:15;;;;;;;;;;;;;;;;;;5185539;28;19933;-57
2024/01/07 09:48:46;;;;;;;;;;;;;;;;;;5202253;28;19921;-57
2024/01/07 09:51:17;;;;;;;;;;;;;;;;;;5182704;28;19984;-58
2024/01/07 09:53:48;;;;;;;;;;;;;;;;;;5182466;28;19921;-57
2024/01/07 09:56:19;;;;;;;;;;;;;;;;;;5184100;28;20365;-57
2024/01/07 09:58:50;;;;;;;;;;;;;;;;;;5202760;28;19925;-59
2024/01/07 10:01:21;;;;;;;;;;;;;;;;;;5184323;28;20007;-57
2024/01/07 10:03:52;;;;;;;;;;;;;;;;;;5200471;28;19968;-57
2024/01/07 10:06:23;;;;;;;;;;;;;;;;;;5203030;28;20327;-58
2024/01/07 10:08:54;;;;;;;;;;;;;;;;;;5194644;28;19974;-58
2024/01/07 10:11:25;;;;;;;;;;;;;;;;;;5202053;28;19925;-58
2024/01/07 10:13:56;;;;;;;;;;;;;;;;;;5185366;28;19928;-59
2024/01/07 10:16:27;;;;;;;;;;;;;;;;;;5120573;28;21724;-57
2024/01/07 10:18:58;;;;;;;;;;;;;;;;;;5133985;28;20000;-58
2024/01/07 10:21:29;;;;;;;;;;;;;;;;;;5146748;28;19975;-57
2024/01/07 10:24:00;;;;;;;;;;;;;;;;;;5161139;28;19929;-57
2024/01/07 10:26:31;;;;;;;;;;;;;;;;;;5160783;28;19955;-56
2024/01/07 10:29:02;;;;;;;;;;;;;;;;;;5148399;28;20377;-57
2024/01/07 10:31:33;;;;;;;;;;;;;;;;;;5158706;28;19929;-58
2024/01/07 10:34:04;;;;;;;;;;;;;;;;;;5154648;28;19927;-57
2024/01/07 10:36:37;;;;;;;;;;;;;;;;;;5155258;28;20369;-57
2024/01/07 10:39:08;;;;;;;;;;;;;;;;;;5154601;28;19922;-57
2024/01/07 10:41:39;;;;;;;;;;;;;;;;;;5157479;28;20068;-58
2024/01/07 10:44:10;;;;;;;;;;;;;;;;;;5144702;28;19923;-57
2024/01/07 10:46:43;;;;;;;;;;;;;;;;;;5148231;28;19930;-58
2024/01/07 10:49:14;;;;;;;;;;;;;;;;;;5144479;28;19941;-58
2024/01/07 10:51:45;;;;;;;;;;;;;;;;;;5160998;28;20004;-59
2024/01/07 10:54:17;;;;;;;;;;;;;;;;;;5160585;28;19926;-58
2024/01/07 10:56:48;;;;;;;;;;;;;;;;;;5144813;28;19922;-57
2024/01/07 10:59:19;;;;;;;;;;;;;;;;;;5144113;28;20389;-57
2024/01/07 11:01:50;;;;;;;;;;;;;;;;;;5149469;28;19929;-58
2024/01/07 11:04:21;;;;;;;;;;;;;;;;;;5160797;28;19930;-56
2024/01/07 11:06:52;;;;;;;;;;;;;;;;;;5165810;28;20374;-57
2024/01/07 11:09:23;;;;;;;;;;;;;;;;;;5143803;28;21355;-59
2024/01/07 11:11:55;;;;;;;;;;;;;;;;;;5161652;28;19926;-59
2024/01/07 11:14:26;;;;;;;;;;;;;;;;;;5161131;28;19926;-57
2024/01/07 11:16:56;;;;;;;;;;;;;;;;;;5167285;28;19961;-58
2024/01/07 11:19:28;;;;;;;;;;;;;;;;;;5148014;28;20392;-58
2024/01/07 11:21:59;;;;;;;;;;;;;;;;;;5162277;28;19930;-58
2024/01/07 11:24:30;;;;;;;;;;;;;;;;;;5150022;28;19922;-57
2024/01/07 11:27:01;;;;;;;;;;;;;;;;;;5162727;28;19937;-57
2024/01/07 11:29:32;;;;;;;;;;;;;;;;;;5167509;28;19982;-57
2024/01/07 11:32:03;;;;;;;;;;;;;;;;;;5166443;28;19937;-57
2024/01/07 11:34:34;;;;;;;;;;;;;;;;;;5160421;28;19977;-58
2024/01/07 11:37:05;;;;;;;;;;;;;;;;;;5160784;28;20036;-58
2024/01/07 11:39:36;;;;;;;;;;;;;;;;;;5144147;28;20404;-58
2024/01/07 11:42:07;;;;;;;;;;;;;;;;;;5162361;28;19997;-59
2024/01/07 11:44:38;;;;;;;;;;;;;;;;;;5164989;28;20302;-59
2024/01/07 11:47:09;;;;;;;;;;;;;;;;;;5166919;28;19933;-58
2024/01/07 11:49:40;;;;;;;;;;;;;;;;;;5146260;28;19923;-57
2024/01/07 11:52:11;;;;;;;;;;;;;;;;;;5170150;28;20369;-58
2024/01/07 11:54:42;;;;;;;;;;;;;;;;;;5164696;28;20227;-57
2024/01/07 11:57:13;;;;;;;;;;;;;;;;;;5167183;28;19922;-57
2024/01/07 11:59:44;;;;;;;;;;;;;;;;;;5159614;28;20258;-57
2024/01/07 12:02:17;;;;;;;;;;;;;;;;;;5147628;28;20023;-58
2024/01/07 12:04:48;;;;;;;;;;;;;;;;;;5148847;28;20266;-57
2024/01/07 12:07:19;;;;;;;;;;;;;;;;;;5172800;28;20380;-57
2024/01/07 12:09:50;;;;;;;;;;;;;;;;;;5161373;28;19926;-57
2024/01/07 12:12:21;;;;;;;;;;;;;;;;;;5165018;28;19926;-57
2024/01/07 12:14:52;;;;;;;;;;;;;;;;;;5144399;28;19933;-57
2024/01/07 12:17:23;;;;;;;;;;;;;;;;;;5166602;28;19922;-58
2024/01/07 12:19:54;;;;;;;;;;;;;;;;;;5137275;28;20377;-57
2024/01/07 12:22:25;;;;;;;;;;;;;;;;;;5162723;28;19926;-58
2024/01/07 12:24:56;;;;;;;;;;;;;;;;;;5158363;28;20040;-58
2024/01/07 12:27:27;;;;;;;;;;;;;;;;;;5157450;28;20296;-58
2024/01/07 12:29:58;;;;;;;;;;;;;;;;;;5159384;28;20309;-58
2024/01/07 12:32:29;;;;;;;;;;;;;;;;;;5159012;28;19926;-57
2024/01/07 12:35:00;;;;;;;;;;;;;;;;;;5158440;28;19949;-57
2024/01/07 12:37:31;;;;;;;;;;;;;;;;;;5158807;28;20028;-58
2024/01/07 12:40:02;;;;;;;;;;;;;;;;;;5142373;28;20010;-57
2024/01/07 12:42:32;;;;;;;;;;;;;;;;;;5158203;28;20040;-56
2024/01/07 12:45:03;;;;;;;;;;;;;;;;;;5158362;28;19926;-57
2024/01/07 12:47:34;;;;;;;;;;;;;;;;;;5126332;28;20365;-57
2024/01/07 12:50:05;;;;;;;;;;;;;;;;;;5141490;28;19922;-57
2024/01/07 12:52:37;;;;;;;;;;;;;;;;;;5158225;28;19987;-57
2024/01/07 12:55:08;;;;;;;;;;;;;;;;;;5158187;28;19926;-57
2024/01/07 12:57:39;;;;;;;;;;;;;;;;;;5141628;28;19986;-57
2024/01/07 13:00:11;;;;;;;;;;;;;;;;;;5158288;28;19968;-57
2024/01/07 13:02:42;;;;;;;;;;;;;;;;;;5158385;28;19997;-57
2024/01/07 13:05:13;;;;;;;;;;;;;;;;;;5142027;28;19949;-57
2024/01/07 13:07:44;;;;;;;;;;;;;;;;;;5158469;28;20421;-59
2024/01/07 13:10:15;;;;;;;;;;;;;;;;;;5138406;28;19965;-57
2024/01/07 13:12:46;;;;;;;;;;;;;;;;;;5157000;28;19922;-58
2024/01/07 13:15:17;;;;;;;;;;;;;;;;;;5148486;28;20271;-58
2024/01/07 13:17:48;;;;;;;;;;;;;;;;;;5156547;28;19922;-58
2024/01/07 13:20:19;;;;;;;;;;;;;;;;;;5141838;28;20034;-57
2024/01/07 13:22:50;;;;;;;;;;;;;;;;;;5158533;28;20243;-57
2024/01/07 13:25:21;;;;;;;;;;;;;;;;;;5157829;28;19935;-57
2024/01/07 13:27:53;;;;;;;;;;;;;;;;;;5142137;28;20043;-57
2024/01/07 13:30:24;;;;;;;;;;;;;;;;;;5141540;28;19950;-57
2024/01/07 13:32:58;;;;;;;;;;;;;;;;;;5158004;28;19976;-57
2024/01/07 13:35:29;;;;;;;;;;;;;;;;;;5143069;28;20381;-57
2024/01/07 13:38:00;;;;;;;;;;;;;;;;;;5157983;28;20002;-57
2024/01/07 13:40:31;;;;;;;;;;;;;;;;;;5141580;28;20006;-57
2024/01/07 13:43:02;;;;;;;;;;;;;;;;;;5158025;28;20004;-57
2024/01/07 13:45:33;;;;;;;;;;;;;;;;;;5141887;28;19948;-57
2024/01/07 13:48:07;;;;;;;;;;;;;;;;;;5157804;28;19926;-58
2024/01/07 13:50:38;;;;;;;;;;;;;;;;;;5158405;28;20369;-57
2024/01/07 13:53:09;;;;;;;;;;;;;;;;;;5157525;28;19998;-57
2024/01/07 13:55:40;;;;;;;;;;;;;;;;;;5161169;28;20400;-57
2024/01/07 13:58:11;;;;;;;;;;;;;;;;;;5161486;28;19978;-57
2024/01/07 14:00:42;;;;;;;;;;;;;;;;;;5161764;28;19925;-57
2024/01/07 14:03:13;;;;;;;;;;;;;;;;;;5161304;28;20417;-57
2024/01/07 14:05:44;;;;;;;;;;;;;;;;;;5160792;28;19926;-58
2024/01/07 14:08:15;;;;;;;;;;;;;;;;;;5161242;28;19928;-57
2024/01/07 14:10:46;;;;;;;;;;;;;;;;;;5160670;28;19965;-57
2024/01/07 14:13:17;;;;;;;;;;;;;;;;;;5160890;28;19922;-57
2024/01/07 14:15:48;;;;;;;;;;;;;;;;;;5160699;28;19922;-57
2024/01/07 14:18:21;;;;;;;;;;;;;;;;;;5160872;28;20612;-57
2024/01/07 14:20:53;;;;;;;;;;;;;;;;;;5160427;28;19925;-58
2024/01/07 14:23:24;;;;;;;;;;;;;;;;;;5160527;28;19922;-57
2024/01/07 14:25:56;;;;;;;;;;;;;;;;;;5160432;28;19933;-58
2024/01/07 14:28:27;;;;;;;;;;;;;;;;;;5160096;28;19918;-57
2024/01/07 14:30:58;;;;;;;;;;;;;;;;;;5128190;28;19950;-57
2024/01/07 14:33:29;;;;;;;;;;;;;;;;;;5160282;28;20404;-58
2024/01/07 14:36:00;;;;;;;;;;;;;;;;;;5160964;28;19926;-58
2024/01/07 14:38:31;;;;;;;;;;;;;;;;;;5160044;28;19973;-59
2024/01/07 14:41:02;;;;;;;;;;;;;;;;;;5160486;28;19962;-58
2024/01/07 14:43:33;;;;;;;;;;;;;;;;;;5159866;28;19926;-58
2024/01/07 14:46:04;;;;;;;;;;;;;;;;;;5143929;28;20532;-58
2024/01/07 14:48:35;;;;;;;;;;;;;;;;;;5160279;28;20421;-58
2024/01/07 14:51:06;;;;;;;;;;;;;;;;;;5159784;28;19997;-58
2024/01/07 14:53:37;;;;;;;;;;;;;;;;;;5159942;28;20393;-58
2024/01/07 14:56:08;;;;;;;;;;;;;;;;;;5143854;28;19953;-59
2024/01/07 14:58:39;;;;;;;;;;;;;;;;;;5127502;28;19973;-58
2024/01/07 15:01:11;;;;;;;;;;;;;;;;;;5143361;28;19926;-58
2024/01/07 15:03:42;;;;;;;;;;;;;;;;;;5144079;28;20310;-58
2024/01/07 15:06:15;;;;;;;;;;;;;;;;;;5159009;28;19930;-58
2024/01/07 15:08:47;;;;;;;;;;;;;;;;;;5172194;28;19926;-58
2024/01/07 15:11:18;;;;;;;;;;;;;;;;;;5167081;28;21215;-56
2024/01/07 15:13:49;;;;;;;;;;;;;;;;;;5163320;28;19930;-56
2024/01/07 15:16:20;;;;;;;;;;;;;;;;;;5160485;28;20064;-56
2024/01/07 15:18:51;;;;;;;;;;;;;;;;;;5163759;28;20008;-57
2024/01/07 15:21:22;;;;;;;;;;;;;;;;;;5125156;28;19926;-57
2024/01/07 15:23:53;;;;;;;;;;;;;;;;;;5151287;28;20484;-57
2024/01/07 15:26:24;;;;;;;;;;;;;;;;;;5164390;28;20000;-58
2024/01/07 15:28:55;;;;;;;;;;;;;;;;;;5144754;28;20270;-58
2024/01/07 15:31:26;;;;;;;;;;;;;;;;;;5160789;28;19933;-57
2024/01/07 15:33:57;;;;;;;;;;;;;;;;;;5143827;28;19976;-56
2024/01/07 15:36:28;;;;;;;;;;;;;;;;;;5161287;28;19922;-57
2024/01/07 15:38:59;;;;;;;;;;;;;;;;;;5167811;28;19922;-56
2024/01/07 15:41:30;;;;;;;;;;;;;;;;;;5162699;28;20265;-56
2024/01/07 15:44:01;;;;;;;;;;;;;;;;;;5173260;28;19930;-57
2024/01/07 15:46:32;;;;;;;;;;;;;;;;;;5170571;28;19926;-56
2024/01/07 15:49:03;;;;;;;;;;;;;;;;;;5165184;28;20301;-57
2024/01/07 15:51:34;;;;;;;;;;;;;;;;;;5160145;28;19926;-56
2024/01/07 15:54:06;;;;;;;;;;;;;;;;;;5143938;28;19941;-56
2024/01/07 15:56:37;;;;;;;;;;;;;;;;;;5159584;28;19925;-56
2024/01/07 15:59:08;;;;;;;;;;;;;;;;;;5159827;28;19952;-57
2024/01/07 16:01:39;;;;;;;;;;;;;;;;;;5163500;28;19922;-57
2024/01/07 16:04:11;;;;;;;;;;;;;;;;;;5166933;28;19922;-55
2024/01/07 16:06:42;;;;;;;;;;;;;;;;;;5159541;28;20325;-55
2024/01/07 16:09:13;;;;;;;;;;;;;;;;;;5159412;28;20575;-56
2024/01/07 16:11:45;;;;;;;;;;;;;;;;;;5160196;28;20346;-56
2024/01/07 16:14:24;;;;;;;;;;;;;;;;;;5163883;28;19922;-56
2024/01/07 16:16:55;;;;;;;;;;;;;;;;;;5167794;28;19969;-57
2024/01/07 16:19:26;;;;;;;;;;;;;;;;;;5143370;28;20334;-56
2024/01/07 16:21:58;;;;;;;;;;;;;;;;;;5146889;28;20025;-56
2024/01/07 16:24:29;;;;;;;;;;;;;;;;;;5158401;28;19926;-56
2024/01/07 16:27:00;;;;;;;;;;;;;;;;;;5144159;28;19980;-57
2024/01/07 16:29:31;;;;;;;;;;;;;;;;;;5166573;28;19922;-57
2024/01/07 16:32:02;;;;;;;;;;;;;;;;;;5151328;28;20005;-57
2024/01/07 16:34:33;;;;;;;;;;;;;;;;;;5164336;28;19923;-57
2024/01/07 16:37:04;;;;;;;;;;;;;;;;;;5144246;28;19922;-57
2024/01/07 16:39:35;;;;;;;;;;;;;;;;;;5158888;28;19976;-57
2024/01/07 16:42:06;;;;;;;;;;;;;;;;;;5159103;28;20378;-56
2024/01/07 16:44:37;;;;;;;;;;;;;;;;;;5147482;28;19922;-57
2024/01/07 16:47:13;;;;;;;;;;;;;;;;;;5158357;28;20288;-57
2024/01/07 16:49:44;;;;;;;;;;;;;;;;;;5163429;28;20045;-57
2024/01/07 16:52:15;;;;;;;;;;;;;;;;;;5157307;28;19925;-57
2024/01/07 16:54:49;;;;;;;;;;;;;;;;;;5163637;28;19929;-58
2024/01/07 16:57:20;;;;;;;;;;;;;;;;;;5169046;28;19944;-58
2024/01/07 16:59:51;;;;;;;;;;;;;;;;;;5159705;28;19933;-56
2024/01/07 17:02:22;;;;;;;;;;;;;;;;;;5129466;28;19922;-58
2024/01/07 17:04:53;;;;;;;;;;;;;;;;;;5152588;28;19949;-57
2024/01/07 17:07:28;;;;;;;;;;;;;;;;;;5162852;28;20434;-56
2024/01/07 17:09:59;;;;;;;;;;;;;;;;;;5160681;28;19922;-57
2024/01/07 17:12:30;;;;;;;;;;;;;;;;;;5166064;28;20516;-57